createdAt,value
2019-02-17T00:00:51.471Z,22.63
2019-02-17T00:03:54.671Z,24.13
2019-02-17T00:06:57.903Z,24.73
2019-02-17T00:10:01.047Z,24.37
2019-02-17T00:13:04.139Z,21.73
2019-02-17T00:16:07.244Z,23.10
2019-02-17T00:19:10.514Z,25.73
2019-02-17T00:22:13.635Z,27.83
2019-02-17T00:25:16.847Z,24.77
2019-02-17T00:28:20.114Z,25.37
2019-02-17T00:31:23.360Z,27.17
2019-02-17T00:34:26.595Z,23.07
2019-02-17T00:37:29.755Z,21.93
2019-02-17T00:40:32.936Z,22.93
2019-02-17T00:43:36.189Z,25.10
2019-02-17T00:46:39.283Z,22.63
2019-02-17T00:49:42.498Z,22.80
2019-02-17T00:52:45.731Z,21.23
2019-02-17T00:55:48.916Z,21.13
2019-02-17T00:58:52.082Z,20.93
2019-02-17T01:01:55.275Z,21.83
2019-02-17T01:04:58.367Z,18.57
2019-02-17T01:08:01.451Z,20.03
2019-02-17T01:11:04.638Z,21.47
2019-02-17T01:14:07.759Z,17.97
2019-02-17T01:17:10.959Z,19.03
2019-02-17T01:20:14.117Z,19.43
2019-02-17T01:23:17.304Z,18.10
2019-02-17T01:26:20.393Z,23.70
2019-02-17T01:29:23.500Z,18.53
2019-02-17T01:32:26.682Z,18.60
2019-02-17T01:35:29.890Z,19.73
2019-02-17T01:38:33.115Z,21.47
2019-02-17T01:41:36.223Z,21.47
2019-02-17T01:44:39.367Z,25.73
2019-02-17T01:47:42.569Z,20.80
2019-02-17T01:50:45.743Z,18.53
2019-02-17T01:53:48.874Z,18.70
2019-02-17T01:56:52.043Z,20.30
2019-02-17T01:59:55.231Z,20.20
2019-02-17T02:02:58.339Z,22.50
2019-02-17T02:06:01.522Z,18.10
2019-02-17T02:09:06.559Z,19.10
2019-02-17T02:12:09.785Z,18.90
2019-02-17T02:15:12.974Z,17.70
2019-02-17T02:18:16.134Z,19.80
2019-02-17T02:21:19.339Z,17.83
2019-02-17T02:24:22.543Z,16.83
2019-02-17T02:27:25.726Z,18.87
2019-02-17T02:30:28.924Z,18.53
2019-02-17T02:33:32.024Z,19.70
2019-02-17T02:36:35.221Z,17.87
2019-02-17T02:39:38.332Z,18.63
2019-02-17T02:42:41.488Z,17.63
2019-02-17T02:45:44.684Z,17.63
2019-02-17T02:48:47.781Z,15.80
2019-02-17T02:51:50.985Z,17.17
2019-02-17T02:54:54.197Z,18.63
2019-02-17T02:57:57.822Z,17.90
2019-02-17T03:01:00.979Z,17.47
2019-02-17T03:04:04.161Z,18.07
2019-02-17T03:07:10.472Z,20.17
2019-02-17T03:10:13.611Z,17.00
2019-02-17T03:13:16.835Z,18.30
2019-02-17T03:16:20.026Z,17.20
2019-02-17T03:19:23.095Z,23.53
2019-02-17T03:22:26.280Z,16.60
2019-02-17T03:25:29.475Z,17.27
2019-02-17T03:28:32.583Z,15.40
2019-02-17T03:31:35.800Z,17.97
2019-02-17T03:34:38.887Z,17.53
2019-02-17T03:37:42.072Z,16.43
2019-02-17T03:40:45.261Z,16.57
2019-02-17T03:43:48.455Z,17.70
2019-02-17T03:46:51.634Z,15.87
2019-02-17T03:49:54.794Z,18.43
2019-02-17T03:52:57.939Z,16.60
2019-02-17T03:56:01.149Z,16.40
2019-02-17T03:59:04.331Z,17.30
2019-02-17T04:02:07.522Z,17.00
2019-02-17T04:05:10.690Z,18.17
2019-02-17T04:08:13.911Z,18.97
2019-02-17T04:11:17.149Z,15.40
2019-02-17T04:14:20.288Z,16.10
2019-02-17T04:17:23.488Z,17.67
2019-02-17T04:20:26.574Z,17.67
2019-02-17T04:23:31.539Z,17.17
2019-02-17T04:26:32.874Z,17.70
2019-02-17T04:29:36.058Z,17.60
2019-02-17T04:32:39.278Z,15.53
2019-02-17T04:35:42.417Z,14.97
2019-02-17T04:38:45.531Z,17.30
2019-02-17T04:41:48.708Z,17.60
2019-02-17T04:44:51.829Z,20.53
2019-02-17T04:47:55.003Z,15.60
2019-02-17T04:50:58.130Z,16.13
2019-02-17T04:54:01.316Z,17.33
2019-02-17T04:57:04.546Z,16.07
2019-02-17T05:00:08.018Z,19.43
2019-02-17T05:03:11.205Z,16.73
2019-02-17T05:06:14.376Z,15.10
2019-02-17T05:09:17.503Z,17.60
2019-02-17T05:12:20.688Z,16.07
2019-02-17T05:15:23.874Z,19.40
2019-02-17T05:18:27.081Z,19.70
2019-02-17T05:21:30.256Z,18.77
2019-02-17T05:24:33.443Z,15.23
2019-02-17T05:27:36.630Z,15.77
2019-02-17T05:30:51.763Z,18.63
2019-02-17T05:33:42.936Z,17.90
2019-02-17T05:36:46.055Z,17.00
2019-02-17T05:39:49.201Z,16.63
2019-02-17T05:42:52.424Z,17.23
2019-02-17T05:45:55.615Z,16.70
2019-02-17T05:48:58.703Z,17.10
2019-02-17T05:52:01.888Z,17.60
2019-02-17T05:55:05.434Z,16.20
2019-02-17T05:58:08.628Z,16.90
2019-02-17T06:01:17.372Z,15.40
2019-02-17T06:04:20.499Z,19.50
2019-02-17T06:07:23.703Z,18.10
2019-02-17T06:10:26.887Z,17.87
2019-02-17T06:13:30.212Z,16.83
2019-02-17T06:16:33.374Z,16.57
2019-02-17T06:19:36.556Z,18.23
2019-02-17T06:22:39.954Z,15.53
2019-02-17T06:25:43.100Z,17.67
2019-02-17T06:28:46.255Z,19.43
2019-02-17T06:31:49.467Z,17.10
2019-02-17T06:34:52.673Z,16.07
2019-02-17T06:37:55.831Z,17.03
2019-02-17T06:40:58.903Z,16.93
2019-02-17T06:44:02.037Z,18.13
2019-02-17T06:47:06.848Z,18.93
2019-02-17T06:50:10.257Z,21.17
2019-02-17T06:53:13.531Z,17.37
2019-02-17T06:56:21.835Z,17.17
2019-02-17T06:59:24.939Z,19.63
2019-02-17T07:02:28.024Z,18.00
2019-02-17T07:05:39.642Z,19.43
2019-02-17T07:08:42.739Z,20.63
2019-02-17T07:11:45.988Z,17.23
2019-02-17T07:14:49.159Z,17.53
2019-02-17T07:17:52.305Z,18.83
2019-02-17T07:20:55.554Z,19.00
2019-02-17T07:23:58.715Z,17.93
2019-02-17T07:27:01.963Z,17.43
2019-02-17T07:30:05.246Z,18.03
2019-02-17T07:33:08.401Z,19.40
2019-02-17T07:36:11.597Z,17.27
2019-02-17T07:39:14.856Z,18.87
2019-02-17T07:42:18.011Z,18.67
2019-02-17T07:45:21.224Z,20.67
2019-02-17T07:48:24.349Z,24.47
2019-02-17T07:51:27.549Z,20.70
2019-02-17T07:54:30.639Z,25.33
2019-02-17T07:57:33.835Z,21.83
2019-02-17T08:00:36.939Z,20.03
2019-02-17T08:03:40.143Z,21.93
2019-02-17T08:06:43.245Z,22.60
2019-02-17T08:09:46.429Z,23.43
2019-02-17T08:12:49.613Z,19.83
2019-02-17T08:15:52.792Z,20.13
2019-02-17T08:18:56.007Z,20.03
2019-02-17T08:21:59.100Z,21.63
2019-02-17T08:25:02.274Z,22.13
2019-02-17T08:28:05.359Z,21.10
2019-02-17T08:31:08.461Z,21.23
2019-02-17T08:34:11.577Z,19.20
2019-02-17T08:37:14.752Z,20.97
2019-02-17T08:40:17.998Z,22.43
2019-02-17T08:43:21.434Z,22.53
2019-02-17T08:46:24.531Z,19.87
2019-02-17T08:49:27.637Z,19.97
2019-02-17T08:52:30.827Z,21.50
2019-02-17T08:55:34.011Z,21.20
2019-02-17T08:58:37.207Z,19.97
2019-02-17T09:01:40.551Z,20.63
2019-02-17T09:04:43.611Z,21.37
2019-02-17T09:07:46.816Z,20.20
2019-02-17T09:10:49.990Z,23.30
2019-02-17T09:13:53.198Z,21.87
2019-02-17T09:16:56.292Z,19.50
2019-02-17T09:19:59.484Z,26.70
2019-02-17T09:23:02.640Z,23.93
2019-02-17T09:26:05.859Z,22.30
2019-02-17T09:29:09.071Z,23.77
2019-02-17T09:32:16.217Z,23.40
2019-02-17T09:35:15.466Z,23.03
2019-02-17T09:38:18.649Z,26.30
2019-02-17T09:41:21.834Z,21.33
2019-02-17T09:44:25.068Z,22.13
2019-02-17T09:47:28.267Z,21.77
2019-02-17T09:50:31.454Z,22.10
2019-02-17T09:53:34.613Z,22.60
2019-02-17T09:56:37.869Z,21.80
2019-02-17T09:59:41.029Z,21.87
2019-02-17T10:02:44.203Z,23.50
2019-02-17T10:05:47.398Z,24.07
2019-02-17T10:08:50.571Z,25.37
2019-02-17T10:11:53.791Z,22.27
2019-02-17T10:14:56.958Z,22.17
2019-02-17T10:18:00.059Z,20.67
2019-02-17T10:21:03.252Z,23.37
2019-02-17T10:24:06.349Z,20.93
2019-02-17T10:27:09.529Z,24.17
2019-02-17T10:30:12.895Z,24.20
2019-02-17T10:33:15.979Z,20.13
2019-02-17T10:36:19.133Z,23.37
2019-02-17T10:39:22.207Z,21.50
2019-02-17T10:42:25.420Z,23.90
2019-02-17T10:45:28.603Z,23.47
2019-02-17T10:48:31.687Z,22.50
2019-02-17T10:51:34.899Z,23.87
2019-02-17T10:54:37.998Z,22.23
2019-02-17T10:57:41.203Z,23.37
2019-02-17T11:00:44.398Z,22.83
2019-02-17T11:03:59.892Z,25.97
2019-02-17T11:07:03.021Z,25.63
2019-02-17T11:10:06.714Z,23.87
2019-02-17T11:13:09.851Z,25.87
2019-02-17T11:16:13.051Z,24.60
2019-02-17T11:19:16.239Z,24.40
2019-02-17T11:22:23.125Z,21.07
2019-02-17T11:25:22.680Z,26.03
2019-02-17T11:28:25.831Z,25.17
2019-02-17T11:31:29.035Z,24.90
2019-02-17T11:34:32.243Z,24.13
2019-02-17T11:37:35.404Z,26.23
2019-02-17T11:40:38.649Z,25.30
2019-02-17T11:43:41.808Z,24.93
2019-02-17T11:46:44.912Z,24.50
2019-02-17T11:49:48.095Z,25.10
2019-02-17T11:52:51.265Z,23.83
2019-02-17T11:55:54.410Z,23.80
2019-02-17T11:58:57.595Z,23.93
2019-02-17T12:02:00.769Z,26.80
2019-02-17T12:05:04.032Z,24.70
2019-02-17T12:08:07.194Z,22.03
2019-02-17T12:11:10.364Z,22.73
2019-02-17T12:14:13.591Z,26.30
2019-02-17T12:17:16.757Z,22.37
2019-02-17T12:22:32.400Z,22.50
2019-02-17T12:25:40.694Z,24.87
2019-02-17T12:28:49.503Z,24.60
2019-02-17T12:31:52.723Z,23.30
2019-02-17T12:34:55.901Z,23.60
2019-02-17T12:37:59.086Z,22.57
2019-02-17T12:41:02.153Z,20.90
2019-02-17T12:44:05.403Z,21.17
2019-02-17T12:47:08.577Z,22.00
2019-02-17T12:50:12.346Z,24.03
2019-02-17T12:53:15.425Z,22.87
2019-02-17T12:56:18.575Z,19.73
2019-02-17T12:59:21.731Z,20.30
2019-02-17T13:02:24.951Z,18.27
2019-02-17T13:05:28.077Z,19.13
2019-02-17T13:08:31.228Z,19.97
2019-02-17T13:11:34.303Z,19.53
2019-02-17T13:14:37.409Z,20.20
2019-02-17T13:17:40.602Z,20.23
2019-02-17T13:20:43.841Z,17.93
2019-02-17T13:23:47.299Z,17.77
2019-02-17T13:26:50.498Z,17.47
2019-02-17T13:29:53.699Z,17.23
2019-02-17T13:32:56.872Z,16.83
2019-02-17T13:36:00.027Z,16.13
2019-02-17T13:39:03.172Z,16.50
2019-02-17T13:42:06.315Z,16.03
2019-02-17T13:45:10.848Z,15.20
2019-02-17T13:48:13.969Z,16.80
2019-02-17T13:51:17.054Z,14.90
2019-02-17T13:54:20.284Z,16.90
2019-02-17T13:57:23.370Z,15.60
2019-02-17T14:00:26.548Z,15.90
2019-02-17T14:03:29.668Z,14.97
2019-02-17T14:06:32.824Z,13.77
2019-02-17T14:09:35.944Z,15.00
2019-02-17T14:12:39.111Z,14.90
2019-02-17T14:15:42.241Z,14.17
2019-02-17T14:18:45.415Z,12.43
2019-02-17T14:21:48.639Z,12.93
2019-02-17T14:24:51.822Z,15.07
2019-02-17T14:27:55.012Z,13.17
2019-02-17T14:30:58.107Z,12.67
2019-02-17T14:34:01.303Z,12.43
2019-02-17T14:37:04.399Z,10.40
2019-02-17T14:40:07.598Z,13.77
2019-02-17T14:43:10.752Z,14.53
2019-02-17T14:46:13.943Z,15.03
2019-02-17T14:49:18.063Z,8.10
2019-02-17T14:52:21.155Z,11.67
2019-02-17T14:55:24.376Z,13.80
2019-02-17T14:58:27.543Z,11.90
2019-02-17T15:01:30.635Z,14.67
2019-02-17T15:04:33.727Z,14.63
2019-02-17T15:07:36.917Z,15.10
2019-02-17T15:10:40.016Z,17.20
2019-02-17T15:13:43.091Z,12.93
2019-02-17T15:16:46.229Z,12.63
2019-02-17T15:19:49.397Z,12.90
2019-02-17T15:22:52.570Z,12.37
2019-02-17T15:25:55.784Z,13.60
2019-02-17T15:28:59.007Z,12.53
2019-02-17T15:32:02.217Z,14.70
2019-02-17T15:35:05.445Z,14.30
2019-02-17T15:38:08.565Z,12.33
2019-02-17T15:41:11.847Z,13.60
2019-02-17T15:44:14.961Z,15.67
2019-02-17T15:47:18.185Z,15.47
2019-02-17T15:50:21.366Z,14.17
2019-02-17T15:53:24.563Z,14.47
2019-02-17T15:56:27.693Z,13.23
2019-02-17T15:59:30.875Z,12.07
2019-02-17T16:02:33.966Z,14.10
2019-02-17T16:05:37.072Z,14.77
2019-02-17T16:08:40.183Z,14.37
2019-02-17T16:11:43.265Z,11.70
2019-02-17T16:14:46.338Z,12.80
2019-02-17T16:17:49.503Z,15.43
2019-02-17T16:20:52.688Z,12.63
2019-02-17T16:23:55.874Z,17.20
2019-02-17T16:26:59.123Z,17.33
2019-02-17T16:30:02.295Z,18.93
2019-02-17T16:33:05.465Z,16.93
2019-02-17T16:36:08.671Z,17.13
2019-02-17T16:39:13.119Z,15.50
2019-02-17T16:42:16.239Z,20.17
2019-02-17T16:45:19.554Z,16.23
2019-02-17T16:48:22.761Z,16.87
2019-02-17T16:51:25.860Z,17.63
2019-02-17T16:54:29.063Z,17.87
2019-02-17T16:57:32.284Z,17.17
2019-02-17T17:00:35.546Z,18.13
2019-02-17T17:03:38.635Z,16.13
2019-02-17T17:06:41.827Z,20.33
2019-02-17T17:09:45.101Z,22.87
2019-02-17T17:12:48.276Z,21.53
2019-02-17T17:15:51.427Z,23.57
2019-02-17T17:18:54.596Z,25.27
2019-02-17T17:21:57.675Z,22.83
2019-02-17T17:25:00.783Z,24.50
2019-02-17T17:28:04.607Z,20.93
2019-02-17T17:31:07.795Z,23.80
2019-02-17T17:34:11.090Z,20.43
2019-02-17T17:37:14.182Z,22.17
2019-02-17T17:40:17.414Z,20.97
2019-02-17T17:43:20.582Z,21.10
2019-02-17T17:46:23.711Z,23.50
2019-02-17T17:49:26.835Z,24.87
2019-02-17T17:52:29.999Z,24.37
2019-02-17T17:55:33.148Z,20.43
2019-02-17T17:58:36.379Z,25.10
2019-02-17T18:01:39.575Z,24.73
2019-02-17T18:04:42.742Z,22.97
2019-02-17T18:07:45.907Z,24.50
2019-02-17T18:10:49.004Z,25.00
2019-02-17T18:13:52.116Z,22.83
2019-02-17T18:16:55.319Z,20.03
2019-02-17T18:19:58.516Z,22.93
2019-02-17T18:23:01.693Z,20.77
2019-02-17T18:26:04.911Z,20.20
2019-02-17T18:29:08.078Z,19.67
2019-02-17T18:32:11.215Z,19.33
2019-02-17T18:35:19.624Z,21.10
2019-02-17T18:38:17.770Z,18.77
2019-02-17T18:41:26.636Z,19.27
2019-02-17T18:44:29.890Z,16.47
2019-02-17T18:47:33.105Z,17.23
2019-02-17T18:50:36.218Z,14.33
2019-02-17T18:53:39.372Z,17.30
2019-02-17T18:56:42.483Z,17.30
2019-02-17T18:59:45.675Z,20.53
2019-02-17T19:02:48.845Z,18.13
2019-02-17T19:05:51.943Z,16.10
2019-02-17T19:08:55.180Z,19.93
2019-02-17T19:11:58.263Z,18.47
2019-02-17T19:15:01.422Z,21.23
2019-02-17T19:18:04.522Z,61.97
2019-02-17T19:21:07.739Z,27.67
2019-02-17T19:24:10.857Z,23.07
2019-02-17T19:27:14.003Z,20.53
2019-02-17T19:30:17.215Z,22.30
2019-02-17T19:33:20.623Z,18.77
2019-02-17T19:36:23.831Z,17.63
2019-02-17T19:39:26.958Z,17.30
2019-02-17T19:42:30.128Z,18.47
2019-02-17T19:45:34.182Z,19.13
2019-02-17T19:48:37.312Z,19.43
2019-02-17T19:51:40.497Z,17.57
2019-02-17T19:54:43.694Z,17.50
2019-02-17T19:57:47.055Z,18.40
2019-02-17T20:00:49.986Z,18.63
2019-02-17T20:03:58.390Z,23.00
2019-02-17T20:07:01.687Z,18.43
2019-02-17T20:10:05.183Z,19.67
2019-02-17T20:13:08.570Z,21.50
2019-02-17T20:16:11.498Z,23.00
2019-02-17T20:19:14.627Z,20.67
2019-02-17T20:22:17.859Z,17.67
2019-02-17T20:25:21.054Z,19.60
2019-02-17T20:28:35.683Z,18.43
2019-02-17T20:31:27.438Z,28.80
2019-02-17T20:34:30.634Z,19.43
2019-02-17T20:37:33.843Z,20.53
2019-02-17T20:40:37.023Z,19.10
2019-02-17T20:43:40.232Z,20.67
2019-02-17T20:46:43.452Z,18.30
2019-02-17T20:49:46.555Z,16.17
2019-02-17T20:52:49.704Z,19.93
2019-02-17T20:55:52.776Z,17.63
2019-02-17T20:58:55.899Z,19.20
2019-02-17T21:01:59.076Z,16.40
2019-02-17T21:05:02.270Z,16.50
2019-02-17T21:08:05.462Z,14.80
2019-02-17T21:11:08.551Z,13.57
2019-02-17T21:14:11.629Z,13.83
2019-02-17T21:17:14.692Z,13.27
2019-02-17T21:20:18.298Z,14.13
2019-02-17T21:23:21.409Z,13.57
2019-02-17T21:26:26.424Z,14.83
2019-02-17T21:29:27.824Z,12.90
2019-02-17T21:32:31.059Z,13.37
2019-02-17T21:35:34.221Z,12.97
2019-02-17T21:38:37.406Z,13.23
2019-02-17T21:41:40.527Z,13.07
2019-02-17T21:44:43.700Z,15.23
2019-02-17T21:47:46.811Z,12.23
2019-02-17T21:50:49.982Z,15.93
2019-02-17T21:53:53.169Z,13.47
2019-02-17T21:56:56.274Z,11.60
2019-02-17T21:59:59.442Z,12.67
2019-02-17T22:03:02.578Z,12.37
2019-02-17T22:06:05.779Z,13.37
2019-02-17T22:09:08.948Z,10.93
2019-02-17T22:12:12.155Z,13.23
2019-02-17T22:15:15.595Z,12.97
2019-02-17T22:18:18.735Z,12.67
2019-02-17T22:21:22.039Z,12.67
2019-02-17T22:24:25.124Z,12.50
2019-02-17T22:27:28.313Z,13.50
2019-02-17T22:30:31.436Z,12.03
2019-02-17T22:33:34.604Z,15.63
2019-02-17T22:36:43.685Z,12.43
2019-02-17T22:39:41.008Z,15.00
2019-02-17T22:42:44.175Z,14.57
2019-02-17T22:45:47.462Z,16.67
2019-02-17T22:48:51.471Z,12.10
2019-02-17T22:51:54.586Z,13.17
2019-02-17T22:54:57.694Z,14.33
2019-02-17T22:58:00.885Z,11.83
2019-02-17T23:01:06.369Z,12.37
2019-02-17T23:04:09.495Z,12.13
2019-02-17T23:07:12.609Z,13.23
2019-02-17T23:10:15.722Z,14.40
2019-02-17T23:13:18.899Z,16.43
2019-02-17T23:19:21.501Z,14.60
2019-02-17T23:22:24.783Z,15.37
2019-02-17T23:25:27.891Z,17.50
2019-02-17T23:28:31.101Z,15.17
2019-02-17T23:31:34.371Z,14.63
2019-02-17T23:34:37.520Z,14.00
2019-02-17T23:37:40.778Z,19.30
2019-02-17T23:40:43.992Z,16.23
2019-02-17T23:43:47.206Z,15.83
2019-02-17T23:46:50.359Z,13.83
2019-02-17T23:49:53.555Z,11.90
2019-02-17T23:52:56.758Z,13.97
2019-02-17T23:55:59.939Z,11.70
2019-02-17T23:59:03.246Z,13.67
